Time;durP1;ratioP1;P1;durP2;ratioP2;P2;SDS_P1;SDS_P2;PMS_P1;PMS_P2;Temp;Humidity;BMP_temperature;BMP_pressure;BME280_temperature;BME280_humidity;BME280_pressure;Samples;Min_cycle;Max_cycle;Signal;HPM_P1;HPM_P2
2022/02/19 00:48:07;;;;;;;1.47;0.80;;;;;;;14.23;57.83;98421.50;5069487;28;20228;-74
2022/02/19 00:51:16;;;;;;;1.17;1.00;;;;;;;14.26;56.45;98446.00;5292480;23;20229;-74
2022/02/19 00:53:44;;;;;;;2.70;0.70;;;;;;;14.05;56.02;98480.22;5039433;28;20213;-75
2022/02/19 00:56:11;;;;;;;1.67;0.80;;;;;;;13.80;56.94;98474.03;5052415;28;20213;-74
2022/02/19 00:58:39;;;;;;;0.87;0.60;;;;;;;13.70;55.80;98487.47;5035977;28;20316;-74
2022/02/19 01:01:06;;;;;;;0.67;0.50;;;;;;;13.58;55.45;98482.31;5053961;28;20213;-74
2022/02/19 01:03:52;;;;;;;0.80;0.40;;;;;;;13.44;52.94;98500.06;5070422;28;20217;-74
2022/02/19 01:06:20;;;;;;;0.90;0.47;;;;;;;13.30;51.97;98496.28;5068566;28;20214;-74
2022/02/19 01:08:50;;;;;;;0.60;0.30;;;;;;;13.07;52.26;98497.47;5052230;28;20201;-74
2022/02/19 01:11:19;;;;;;;2.17;0.30;;;;;;;12.96;52.57;98491.28;5069324;28;20229;-74
2022/02/19 01:13:48;;;;;;;0.40;0.20;;;;;;;12.93;52.53;98517.84;5050735;28;20248;-74
2022/02/19 01:16:23;;;;;;;2.03;0.50;;;;;;;12.73;53.13;98522.06;5067424;22;20237;-74
2022/02/19 01:18:53;;;;;;;0.67;0.33;;;;;;;12.47;53.04;98516.78;5049085;28;20247;-74
2022/02/19 01:21:25;;;;;;;0.80;0.40;;;;;;;12.42;52.75;98514.03;4987202;28;20283;-74
2022/02/19 01:23:56;;;;;;;0.17;0.17;;;;;;;12.29;53.05;98540.28;4989596;28;20232;-77
2022/02/19 01:26:23;;;;;;;1.03;0.30;;;;;;;12.09;53.65;98561.59;4987346;28;20220;-77
2022/02/19 01:28:53;;;;;;;0.90;0.30;;;;;;;11.95;53.96;98559.56;4984930;28;20191;-77
2022/02/19 01:31:31;;;;;;;0.30;0.30;;;;;;;11.84;53.43;98556.00;4991006;28;20204;-74
2022/02/19 01:33:58;;;;;;;0.20;0.20;;;;;;;11.75;53.97;98574.44;4987452;28;20235;-74
2022/02/19 01:36:34;;;;;;;0.30;0.20;;;;;;;11.57;51.79;98587.34;4974833;28;20227;-74
2022/02/19 01:39:05;;;;;;;0.30;0.20;;;;;;;11.56;51.23;98593.75;4962960;29;20224;-77
2022/02/19 01:42:00;;;;;;;0.60;0.30;;;;;;;11.41;51.14;98618.53;4969338;29;20725;-77
2022/02/19 01:44:36;;;;;;;0.30;0.20;;;;;;;11.29;51.65;98620.53;4971343;29;20565;-76
2022/02/19 01:47:15;;;;;;;0.43;0.27;;;;;;;11.25;52.47;98630.09;4986678;28;20233;-77
2022/02/19 01:49:45;;;;;;;0.53;0.27;;;;;;;11.00;53.33;98638.63;4974005;28;20283;-76
2022/02/19 01:52:16;;;;;;;0.20;0.20;;;;;;;10.94;53.75;98634.22;5005667;28;20241;-76
2022/02/19 01:54:44;;;;;;;1.27;0.47;;;;;;;10.72;55.36;98634.19;4991405;28;20258;-77
2022/02/19 01:57:33;;;;;;;0.10;0.10;;;;;;;10.73;55.98;98646.50;5007496;28;20227;-76
2022/02/19 02:00:14;;;;;;;0.20;0.10;;;;;;;10.73;56.46;98645.72;4993741;28;20195;-76
2022/02/19 02:02:56;;;;;;;0.40;0.17;;;;;;;10.63;56.90;98654.41;4990442;28;20287;-76
2022/02/19 02:05:46;;;;;;;0.70;0.20;;;;;;;10.56;56.12;98656.41;5007032;28;20456;-77
2022/02/19 02:08:33;;;;;;;0.23;0.20;;;;;;;10.54;56.36;98648.59;5011436;28;20219;-77
2022/02/19 02:11:02;;;;;;;0.93;0.30;;;;;;;10.40;56.28;98660.72;4996466;28;20231;-77
2022/02/19 02:13:45;;;;;;;1.13;0.30;;;;;;;10.44;54.74;98655.69;5048631;23;20231;-76
2022/02/19 02:16:13;;;;;;;0.30;0.20;;;;;;;10.35;55.30;98649.09;5050883;28;20449;-77
2022/02/19 02:19:01;;;;;;;0.13;0.13;;;;;;;10.33;54.73;98654.69;5036384;28;20218;-77
2022/02/19 02:21:28;;;;;;;0.60;0.30;;;;;;;10.21;54.13;98670.00;5047485;28;20233;-77
2022/02/19 02:24:15;;;;;;;1.17;0.60;;;;;;;10.08;54.46;98657.69;5050705;23;20232;-76
2022/02/19 02:26:45;;;;;;;0.77;0.30;;;;;;;10.10;53.77;98668.97;5034807;28;20252;-77
2022/02/19 02:29:17;;;;;;;0.40;0.33;;;;;;;10.05;53.24;98668.06;5050606;28;20243;-77
2022/02/19 02:31:48;;;;;;;0.70;0.30;;;;;;;10.01;53.35;98682.97;5051375;28;20357;-76
2022/02/19 02:34:19;;;;;;;0.50;0.27;;;;;;;9.94;52.97;98663.56;5052248;28;20630;-76
2022/02/19 02:37:05;;;;;;;0.97;0.20;;;;;;;9.93;52.42;98662.78;5056229;28;20190;-77
2022/02/19 02:39:32;;;;;;;0.53;0.30;;;;;;;9.97;51.62;98655.88;5065554;28;20235;-77
2022/02/19 02:42:01;;;;;;;0.40;0.20;;;;;;;10.05;50.18;98649.31;5058791;28;20270;-77
2022/02/19 02:44:29;;;;;;;0.53;0.33;;;;;;;9.98;50.47;98636.09;5064167;28;20221;-77
2022/02/19 02:46:56;;;;;;;0.90;0.30;;;;;;;9.90;50.33;98633.78;5051740;23;20232;-77
2022/02/19 02:49:43;;;;;;;0.90;0.30;;;;;;;9.95;50.12;98638.44;5058935;28;20221;-77
2022/02/19 02:52:16;;;;;;;0.30;0.20;;;;;;;10.03;49.82;98600.59;5052696;28;20258;-76
2022/02/19 02:54:43;;;;;;;1.03;0.30;;;;;;;9.99;48.94;98623.50;5052348;28;20225;-77
2022/02/19 02:57:11;;;;;;;1.83;0.30;;;;;;;9.91;49.27;98615.88;5065979;28;20218;-77
2022/02/19 02:59:39;;;;;;;0.47;0.27;;;;;;;9.93;49.38;98627.16;5066722;28;20238;-79
2022/02/19 03:02:26;;;;;;;0.50;0.30;;;;;;;9.92;49.35;98620.19;5052412;28;20248;-76
2022/02/19 03:04:53;;;;;;;0.60;0.40;;;;;;;9.91;49.64;98626.59;5050196;23;20308;-77
2022/02/19 03:07:19;;;;;;;1.87;0.30;;;;;;;9.86;49.06;98629.97;5021209;28;20242;-77
2022/02/19 03:09:59;;;;;;;0.30;0.27;;;;;;;9.93;48.87;98649.38;5057301;23;20213;-76
2022/02/19 03:12:31;;;;;;;0.70;0.30;;;;;;;9.95;48.81;98646.44;5017469;28;20225;-76
2022/02/19 03:14:58;;;;;;;0.20;0.20;;;;;;;9.93;48.50;98648.56;5033132;28;20228;-77
2022/02/19 03:17:25;;;;;;;1.60;0.50;;;;;;;9.97;48.44;98639.84;5052858;28;20226;-77
2022/02/19 03:19:56;;;;;;;1.20;0.50;;;;;;;9.91;48.47;98648.00;5027837;28;20242;-77
2022/02/19 03:22:31;;;;;;;1.03;0.40;;;;;;;9.82;48.52;98660.13;5045578;28;20249;-76
2022/02/19 03:24:58;;;;;;;1.07;0.50;;;;;;;9.90;48.11;98649.03;5026537;28;20524;-76
2022/02/19 03:27:28;;;;;;;0.30;0.20;;;;;;;9.88;48.21;98657.31;5037517;28;20232;-76
2022/02/19 03:30:00;;;;;;;1.03;0.30;;;;;;;9.75;49.03;98657.59;5050428;28;20221;-77
2022/02/19 03:32:33;;;;;;;0.30;0.30;;;;;;;9.72;48.10;98671.44;5051207;28;20243;-76
2022/02/19 03:35:01;;;;;;;0.93;0.30;;;;;;;9.77;48.54;98674.22;5006700;28;20317;-76
2022/02/19 03:37:32;;;;;;;1.03;0.40;;;;;;;9.67;48.71;98669.47;5038220;28;20304;-76
2022/02/19 03:40:31;;;;;;;1.03;0.40;;;;;;;9.83;48.09;98694.66;5011466;28;20229;-76
2022/02/19 03:43:11;;;;;;;1.07;0.40;;;;;;;9.75;48.60;98684.34;5039851;28;20230;-76
2022/02/19 03:45:55;;;;;;;0.80;0.40;;;;;;;9.78;48.56;98709.81;5037288;28;20226;-76
2022/02/19 03:48:49;;;;;;;3.47;0.40;;;;;;;9.71;48.46;98700.03;5047313;28;20644;-76
2022/02/19 03:51:20;;;;;;;1.43;0.40;;;;;;;9.65;48.75;98726.94;5044155;28;20576;-77
2022/02/19 03:53:50;;;;;;;1.03;0.30;;;;;;;9.59;48.28;98704.59;5009296;28;20203;-77
2022/02/19 03:56:24;;;;;;;0.37;0.27;;;;;;;9.64;47.70;98715.41;5018055;28;20298;-76
2022/02/19 03:59:01;;;;;;;0.43;0.23;;;;;;;9.72;46.29;98730.28;5016207;28;20221;-76
2022/02/19 04:01:34;;;;;;;1.10;0.30;;;;;;;9.66;46.38;98733.88;5017454;28;20237;-76
2022/02/19 04:04:24;;;;;;;0.80;0.30;;;;;;;9.66;45.14;98725.84;5021361;28;20218;-76
2022/02/19 04:06:52;;;;;;;2.00;0.30;;;;;;;9.64;45.81;98747.50;5039008;23;20288;-76
2022/02/19 04:09:39;;;;;;;0.73;0.30;;;;;;;9.62;45.15;98732.72;5037552;28;20226;-76
2022/02/19 04:12:09;;;;;;;0.67;0.40;;;;;;;9.59;44.81;98742.03;5049449;28;20239;-76
2022/02/19 04:14:39;;;;;;;0.67;0.30;;;;;;;9.60;44.50;98749.03;5032932;28;20221;-76
2022/02/19 04:17:06;;;;;;;0.97;0.40;;;;;;;9.64;44.28;98754.72;5026053;28;20220;-76
2022/02/19 04:19:43;;;;;;;0.80;0.30;;;;;;;9.66;43.26;98750.75;5034643;28;20235;-76
2022/02/19 04:22:25;;;;;;;0.40;0.30;;;;;;;9.78;42.50;98763.31;5013625;28;20233;-76
2022/02/19 04:24:55;;;;;;;1.27;0.40;;;;;;;9.80;42.21;98759.31;5034365;28;20198;-76
2022/02/19 04:27:37;;;;;;;0.93;0.40;;;;;;;9.81;42.04;98771.66;5062881;23;20237;-76
2022/02/19 04:30:05;;;;;;;0.47;0.30;;;;;;;9.92;40.64;98762.81;5066513;28;20244;-76
2022/02/19 04:32:40;;;;;;;1.87;0.40;;;;;;;9.86;40.49;98771.78;5060993;28;20499;-76
2022/02/19 04:35:07;;;;;;;1.03;0.40;;;;;;;9.93;39.78;98772.47;5022947;28;20245;-76
2022/02/19 04:37:38;;;;;;;2.30;0.30;;;;;;;9.98;39.27;98775.25;5050804;28;20222;-76
2022/02/19 04:40:15;;;;;;;0.77;0.30;;;;;;;10.02;38.89;98797.81;5009919;28;20241;-76
2022/02/19 04:42:58;;;;;;;2.90;0.47;;;;;;;10.09;38.57;98811.03;5046640;23;20223;-76
2022/02/19 04:45:36;;;;;;;1.50;0.50;;;;;;;10.22;38.21;98802.00;5017365;28;20225;-76
2022/02/19 04:48:08;;;;;;;2.00;0.20;;;;;;;10.12;37.95;98811.38;5049783;28;20234;-76
2022/02/19 04:50:40;;;;;;;1.37;0.37;;;;;;;10.20;37.96;98804.91;5048160;28;20248;-76
2022/02/19 04:53:15;;;;;;;1.10;0.40;;;;;;;10.18;37.43;98790.91;5031545;28;20259;-76
2022/02/19 04:55:47;;;;;;;0.90;0.50;;;;;;;10.19;36.85;98789.06;5031275;28;20225;-76
2022/02/19 04:58:37;;;;;;;0.97;0.47;;;;;;;10.32;36.44;98824.41;5047048;28;20228;-76
2022/02/19 05:01:04;;;;;;;0.77;0.50;;;;;;;10.31;36.16;98825.44;5032565;28;20630;-76
2022/02/19 05:03:53;;;;;;;1.93;0.30;;;;;;;10.30;36.11;98817.69;5057402;28;20235;-76
2022/02/19 05:07:02;;;;;;;0.67;0.40;;;;;;;10.45;35.80;98823.34;5038248;28;20232;-76
2022/02/19 05:09:31;;;;;;;0.80;0.30;;;;;;;10.48;35.95;98812.13;5031987;28;20226;-76
2022/02/19 05:12:06;;;;;;;1.43;0.50;;;;;;;10.38;36.28;98842.22;5052427;28;20225;-76
2022/02/19 05:14:36;;;;;;;2.53;0.60;;;;;;;10.36;35.61;98830.91;5057411;23;20316;-76
2022/02/19 05:17:13;;;;;;;1.27;0.40;;;;;;;10.47;35.61;98846.13;5037116;28;20241;-76
2022/02/19 05:19:49;;;;;;;1.33;0.47;;;;;;;10.45;35.51;98840.19;5067006;28;20231;-76
2022/02/19 05:22:17;;;;;;;1.60;0.40;;;;;;;10.40;35.73;98829.41;5068364;28;20213;-76
2022/02/19 05:24:50;;;;;;;0.90;0.43;;;;;;;10.47;35.24;98835.44;5049651;28;20209;-76
2022/02/19 05:27:24;;;;;;;2.20;0.53;;;;;;;10.52;35.39;98842.75;5023274;28;20222;-76
2022/02/19 05:30:10;;;;;;;1.03;0.40;;;;;;;10.42;35.89;98859.44;5014962;28;20245;-76
2022/02/19 05:32:59;;;;;;;1.77;0.63;;;;;;;10.35;36.14;98849.91;5059272;28;20225;-76
2022/02/19 05:35:33;;;;;;;1.93;0.50;;;;;;;10.39;36.74;98857.22;5051532;28;20197;-76
2022/02/19 05:38:01;;;;;;;2.40;0.60;;;;;;;10.38;36.59;98850.25;5052699;28;20225;-76
2022/02/19 05:40:35;;;;;;;1.10;0.30;;;;;;;10.46;36.50;98860.56;5051932;28;20245;-76
2022/02/19 05:43:12;;;;;;;1.87;0.40;;;;;;;10.48;36.61;98887.94;5068678;28;20229;-76
2022/02/19 05:45:48;;;;;;;2.23;0.50;;;;;;;10.43;37.11;98877.13;5070216;28;20222;-76
2022/02/19 05:48:23;;;;;;;2.43;0.60;;;;;;;10.50;36.80;98885.00;5042268;28;20260;-76
2022/02/19 05:51:16;;;;;;;1.73;0.67;;;;;;;10.31;37.48;98891.59;5041710;28;20313;-76
2022/02/19 05:53:54;;;;;;;1.33;0.47;;;;;;;10.49;36.98;98892.25;5048606;28;20222;-76
2022/02/19 05:56:21;;;;;;;1.90;0.70;;;;;;;10.40;37.35;98891.00;5050238;23;20571;-77
2022/02/19 05:58:48;;;;;;;2.00;0.50;;;;;;;10.35;37.65;98895.44;5055217;28;20289;-76
2022/02/19 06:01:22;;;;;;;1.20;0.50;;;;;;;10.33;36.65;98901.00;5049156;28;20213;-78
2022/02/19 06:04:01;;;;;;;2.47;0.63;;;;;;;10.42;36.90;98904.94;5049543;28;20230;-76
2022/02/19 06:06:31;;;;;;;1.87;0.70;;;;;;;10.50;36.40;98896.53;5081032;28;20245;-76
2022/02/19 06:09:00;;;;;;;2.57;0.67;;;;;;;10.54;36.61;98908.41;5055511;23;20693;-76
2022/02/19 06:11:35;;;;;;;1.77;0.43;;;;;;;10.46;36.62;98906.09;5047311;28;20229;-76
2022/02/19 06:14:31;;;;;;;1.23;0.60;;;;;;;10.48;36.96;98928.13;5025674;28;20246;-76
2022/02/19 06:17:05;;;;;;;2.60;0.60;;;;;;;10.47;36.12;98929.16;5049944;28;20229;-76
2022/02/19 06:19:31;;;;;;;1.47;0.50;;;;;;;10.51;35.77;98916.09;5122107;23;20230;-76
2022/02/19 06:22:01;;;;;;;1.87;0.73;;;;;;;10.52;35.93;98939.97;5049670;28;20252;-76
2022/02/19 06:24:35;;;;;;;1.33;0.40;;;;;;;10.59;35.97;98927.25;5033466;28;20225;-76
2022/02/19 06:27:12;;;;;;;0.97;0.53;;;;;;;10.73;35.70;98901.00;5050025;28;20232;-76
2022/02/19 06:29:54;;;;;;;1.50;0.50;;;;;;;10.66;35.58;98926.31;5024291;28;20210;-76
2022/02/19 06:32:35;;;;;;;0.93;0.50;;;;;;;10.80;34.77;98923.16;5029277;28;20213;-76
2022/02/19 06:35:56;;;;;;;2.03;0.70;;;;;;;10.97;34.89;98940.09;5048534;23;20252;-76
2022/02/19 06:38:41;;;;;;;1.63;0.70;;;;;;;10.97;35.11;98945.44;5072881;28;20210;-76
2022/02/19 06:41:46;;;;;;;1.43;0.67;;;;;;;11.08;34.61;98951.81;5072369;28;20257;-76
2022/02/19 06:44:30;;;;;;;1.27;0.40;;;;;;;11.14;34.44;98980.38;5054163;28;20225;-77
2022/02/19 06:47:15;;;;;;;2.83;0.50;;;;;;;11.16;33.98;98967.53;5052405;28;20219;-76
2022/02/19 06:49:42;;;;;;;1.67;0.53;;;;;;;11.30;33.71;98976.09;5055158;28;20244;-76
2022/02/19 06:52:11;;;;;;;1.17;0.50;;;;;;;11.30;33.98;98978.78;5136994;23;20249;-76
2022/02/19 06:54:48;;;;;;;0.80;0.50;;;;;;;11.54;33.06;98966.88;5041994;23;20232;-76
2022/02/19 06:57:17;;;;;;;1.40;0.40;;;;;;;11.58;32.56;98996.72;5050785;28;20244;-76
2022/02/19 06:59:46;;;;;;;1.40;0.50;;;;;;;11.61;32.43;99001.63;5085919;28;20225;-76
2022/02/19 07:02:14;;;;;;;2.30;0.47;;;;;;;11.76;33.22;99020.69;5051051;28;20231;-76
2022/02/19 07:04:48;;;;;;;2.10;0.80;;;;;;;11.63;33.00;99019.09;5051820;28;20264;-76
2022/02/19 07:07:40;;;;;;;1.70;0.60;;;;;;;11.68;33.41;99010.31;5076623;23;20217;-76
2022/02/19 07:10:13;;;;;;;1.87;0.90;;;;;;;11.64;33.40;99026.09;5058553;23;20232;-76
2022/02/19 07:12:49;;;;;;;2.43;0.73;;;;;;;11.68;33.19;99015.69;5065712;23;20217;-76
2022/02/19 07:15:20;;;;;;;2.57;0.77;;;;;;;11.45;32.88;99030.84;5070318;28;20221;-76
2022/02/19 07:18:07;;;;;;;1.90;0.60;;;;;;;11.52;33.79;99037.94;5074344;28;20216;-76
2022/02/19 07:20:57;;;;;;;1.70;0.63;;;;;;;11.49;33.63;99034.66;5077818;23;20226;-76
2022/02/19 07:23:27;;;;;;;1.00;0.40;;;;;;;11.71;33.86;99050.09;5009192;28;20311;-76
2022/02/19 07:25:56;;;;;;;2.27;0.70;;;;;;;11.82;33.28;99051.94;5007971;28;20227;-76
2022/02/19 07:28:24;;;;;;;2.20;0.60;;;;;;;11.79;33.60;99055.09;5037911;23;20241;-77
2022/02/19 07:30:52;;;;;;;3.20;0.70;;;;;;;11.90;34.22;99070.31;5069239;28;20220;-76
2022/02/19 07:33:22;;;;;;;1.37;0.50;;;;;;;11.98;34.04;99088.75;5070438;28;20217;-76
2022/02/19 07:35:56;;;;;;;3.13;0.60;;;;;;;11.97;33.91;99078.22;5069314;28;20312;-76
2022/02/19 07:38:28;;;;;;;2.00;0.50;;;;;;;11.91;34.17;99080.81;5040366;23;20282;-76
2022/02/19 07:41:04;;;;;;;1.90;0.60;;;;;;;11.87;34.21;99087.75;5026074;23;20588;-76
2022/02/19 07:44:25;;;;;;;1.83;0.90;;;;;;;11.99;34.42;99076.91;5058671;23;20224;-76
2022/02/19 07:47:23;;;;;;;2.60;0.67;;;;;;;12.07;34.11;99060.44;5050210;28;20245;-76
2022/02/19 07:59:16;;;;;;;2.33;0.60;;;;;;;12.46;32.80;99125.00;5040054;28;20217;-76
2022/02/19 08:01:46;;;;;;;1.10;0.60;;;;;;;12.19;32.89;99119.44;5053264;28;20221;-76
2022/02/19 08:04:14;;;;;;;2.87;0.70;;;;;;;12.07;34.30;99122.19;5060154;23;20238;-75
2022/02/19 08:06:48;;;;;;;2.53;0.67;;;;;;;11.97;33.95;99132.75;5069453;28;20280;-76
2022/02/19 08:09:16;;;;;;;2.43;0.60;;;;;;;11.71;34.00;99134.09;5053599;28;20505;-76
2022/02/19 08:11:50;;;;;;;1.87;0.80;;;;;;;11.89;34.44;99135.81;5050836;28;20667;-76
2022/02/19 08:14:23;;;;;;;3.03;0.70;;;;;;;11.82;34.85;99127.91;5072366;28;20236;-77
2022/02/19 08:16:59;;;;;;;1.83;0.60;;;;;;;11.73;34.13;99147.31;5070921;28;20232;-76
2022/02/19 08:19:28;;;;;;;2.83;0.83;;;;;;;11.27;35.01;99135.63;5072558;28;20286;-77
2022/02/19 08:21:57;;;;;;;1.97;0.70;;;;;;;11.26;35.00;99159.97;5055718;28;20276;-76
2022/02/19 08:24:25;;;;;;;1.57;0.60;;;;;;;11.25;35.61;99163.69;5078421;23;20256;-76
2022/02/19 08:26:56;;;;;;;2.60;0.90;;;;;;;11.21;35.58;99163.34;5080590;28;20231;-77
2022/02/19 08:29:28;;;;;;;2.97;0.80;;;;;;;11.11;35.02;99171.19;5078196;28;20295;-76
2022/02/19 08:31:57;;;;;;;2.00;0.60;;;;;;;11.15;35.06;99190.31;5075353;28;20233;-76
2022/02/19 08:34:25;;;;;;;3.23;0.60;;;;;;;11.06;35.43;99172.94;5077361;28;20236;-76
2022/02/19 08:37:00;;;;;;;2.03;0.50;;;;;;;11.15;35.38;99183.06;5088916;28;20230;-76
2022/02/19 08:39:28;;;;;;;2.60;0.60;;;;;;;11.16;34.22;99182.00;5072727;28;20219;-76
2022/02/19 08:41:59;;;;;;;4.50;0.80;;;;;;;11.18;34.63;99190.66;5092821;28;20220;-77
2022/02/19 08:44:33;;;;;;;2.30;0.70;;;;;;;11.17;35.12;99194.38;5091612;28;20236;-76
2022/02/19 08:47:09;;;;;;;2.20;0.60;;;;;;;11.15;35.27;99201.81;5087426;28;20236;-76
2022/02/19 08:49:43;;;;;;;1.77;0.63;;;;;;;11.24;35.05;99196.94;5077033;28;20259;-76
2022/02/19 08:52:11;;;;;;;1.67;0.60;;;;;;;11.13;35.37;99205.81;5075944;28;20219;-76
2022/02/19 08:54:40;;;;;;;3.23;0.70;;;;;;;11.24;34.47;99202.31;5093207;28;20211;-76
2022/02/19 08:57:18;;;;;;;2.23;0.80;;;;;;;11.23;34.96;99212.22;5093807;28;20220;-76
2022/02/19 08:59:49;;;;;;;3.83;0.80;;;;;;;11.34;35.35;99232.03;5076543;28;20221;-76
2022/02/19 09:02:19;;;;;;;2.40;0.70;;;;;;;11.42;35.28;99213.72;5073094;28;20238;-76
2022/02/19 09:04:51;;;;;;;2.83;0.53;;;;;;;11.45;35.47;99221.28;5073628;28;20188;-76
2022/02/19 09:07:19;;;;;;;1.77;0.63;;;;;;;11.42;35.16;99229.81;5077137;28;20248;-76
2022/02/19 09:09:50;;;;;;;1.57;0.53;;;;;;;11.49;35.31;99245.78;5074681;23;20228;-76
2022/02/19 09:12:17;;;;;;;2.53;0.67;;;;;;;11.47;35.01;99248.72;5040809;28;20255;-76
2022/02/19 09:14:44;;;;;;;1.70;1.10;;;;;;;11.51;35.30;99240.19;5048000;28;20241;-76
2022/02/19 09:17:11;;;;;;;3.60;0.70;;;;;;;11.60;35.84;99234.22;5059622;28;20245;-76
2022/02/19 09:19:40;;;;;;;2.33;0.50;;;;;;;11.78;34.49;99252.06;5049306;28;20249;-77
2022/02/19 09:22:06;;;;;;;1.70;0.50;;;;;;;11.94;34.67;99254.03;5063548;28;20234;-76
2022/02/19 09:24:40;;;;;;;1.33;0.60;;;;;;;11.86;34.66;99262.44;5099573;22;20281;-75
2022/02/19 09:27:17;;;;;;;4.93;0.70;;;;;;;12.09;34.44;99270.44;5062318;28;20239;-76
2022/02/19 09:29:44;;;;;;;2.30;0.70;;;;;;;12.18;33.69;99266.31;5053241;28;20305;-76
2022/02/19 09:32:13;;;;;;;2.87;0.50;;;;;;;12.07;34.41;99285.16;5080574;23;20595;-76
2022/02/19 09:34:42;;;;;;;2.20;0.70;;;;;;;12.19;34.66;99269.81;5066923;28;20220;-76
2022/02/19 09:37:10;;;;;;;2.13;0.60;;;;;;;12.25;35.12;99264.31;5033650;28;20197;-75
2022/02/19 09:40:41;;;;;;;2.20;0.50;;;;;;;12.34;34.73;99273.63;5104624;27;20524;-77
2022/02/19 09:43:11;;;;;;;2.23;0.63;;;;;;;12.36;34.42;99268.81;5103094;28;20245;-77
2022/02/19 09:46:17;;;;;;;1.30;0.53;;;;;;;12.46;34.60;99283.53;5100852;28;20282;-77
2022/02/19 09:49:24;;;;;;;1.53;0.67;;;;;;;12.52;34.29;99290.63;5102513;28;20235;-77
2022/02/19 09:52:29;;;;;;;2.43;0.63;;;;;;;12.69;35.42;99286.91;5050614;27;20561;-77
2022/02/19 09:55:36;;;;;;;2.67;0.70;;;;;;;12.99;33.47;99300.06;5040240;28;20226;-78
2022/02/19 09:58:51;;;;;;;2.00;0.60;;;;;;;13.21;32.64;99306.38;5032471;23;20231;-78
2022/02/19 10:01:25;;;;;;;2.07;0.80;;;;;;;13.36;33.50;99303.13;5028653;28;20206;-78
2022/02/19 10:05:22;;;;;;;1.83;0.70;;;;;;;13.60;32.62;99315.34;4987155;28;20255;-78
2022/02/19 10:08:12;;;;;;;2.60;0.60;;;;;;;13.43;32.34;99325.31;4976049;28;20247;-77
2022/02/19 10:11:09;;;;;;;3.37;0.80;;;;;;;13.22;33.06;99308.03;4953984;28;20229;-78
2022/02/19 10:14:23;;;;;;;1.67;0.60;;;;;;;13.30;33.02;99314.06;4957484;28;20239;-77
2022/02/19 10:17:03;;;;;;;1.83;0.70;;;;;;;13.35;32.38;99303.38;5109466;22;20239;-77
2022/02/19 10:19:53;;;;;;;2.60;0.67;;;;;;;13.08;32.33;99309.38;5007177;28;20235;-77
2022/02/19 10:22:52;;;;;;;1.50;0.60;;;;;;;13.13;33.22;99316.75;5006285;28;20231;-77
2022/02/19 10:25:27;;;;;;;2.03;0.60;;;;;;;13.27;33.85;99325.31;5104694;23;20230;-76
2022/02/19 10:28:19;;;;;;;1.87;0.90;;;;;;;13.07;32.67;99326.56;5035754;23;20222;-76
2022/02/19 10:30:48;;;;;;;3.07;0.60;;;;;;;13.20;32.18;99301.28;5048093;23;20217;-77
2022/02/19 10:33:45;;;;;;;1.47;0.60;;;;;;;13.12;31.81;99336.63;5035043;23;20223;-77
2022/02/19 10:36:19;;;;;;;1.67;0.60;;;;;;;13.05;32.96;99342.16;5012558;28;20215;-76
2022/02/19 10:38:59;;;;;;;1.07;0.50;;;;;;;12.85;32.86;99325.63;5023389;28;20229;-77
2022/02/19 10:41:39;;;;;;;2.50;0.70;;;;;;;13.00;32.33;99341.22;5013626;28;20234;-77
2022/02/19 10:44:32;;;;;;;1.90;0.80;;;;;;;13.01;32.33;99321.34;5025860;28;20235;-77
2022/02/19 10:47:37;;;;;;;1.30;0.67;;;;;;;13.03;32.70;99335.34;5027816;28;20271;-77
2022/02/19 10:50:19;;;;;;;3.47;0.87;;;;;;;13.08;32.53;99332.75;5019262;28;20574;-77
2022/02/19 10:53:08;;;;;;;1.43;0.60;;;;;;;12.90;32.48;99332.97;5025216;28;20258;-77
2022/02/19 10:55:39;;;;;;;2.43;0.90;;;;;;;13.06;32.46;99333.03;5022027;28;20299;-77
2022/02/19 10:58:09;;;;;;;2.17;0.80;;;;;;;13.16;31.78;99327.81;5041896;28;20235;-77
2022/02/19 11:00:52;;;;;;;1.10;0.60;;;;;;;13.28;32.35;99337.72;5040017;28;20205;-77
2022/02/19 11:03:21;;;;;;;2.77;0.50;;;;;;;13.39;30.38;99334.91;5013039;28;20223;-77
2022/02/19 11:05:57;;;;;;;1.73;0.67;;;;;;;13.45;31.56;99331.25;5013258;28;20191;-77
2022/02/19 11:08:25;;;;;;;2.70;0.70;;;;;;;13.70;31.51;99346.19;5018163;23;20242;-77
2022/02/19 11:10:53;;;;;;;1.37;0.67;;;;;;;13.76;30.17;99337.13;4996349;28;20530;-77
2022/02/19 11:13:20;;;;;;;2.43;0.80;;;;;;;13.70;30.31;99313.88;5014659;28;20231;-77
2022/02/19 11:15:48;;;;;;;2.27;0.80;;;;;;;13.71;30.89;99334.34;5020216;28;20572;-77
2022/02/19 11:18:20;;;;;;;2.20;0.80;;;;;;;13.72;31.06;99341.38;5006543;28;20245;-77
2022/02/19 11:21:01;;;;;;;1.60;0.53;;;;;;;13.60;31.16;99319.91;5003400;28;20227;-76
2022/02/19 11:24:13;;;;;;;2.27;0.73;;;;;;;13.54;31.76;99313.63;5003987;28;20231;-76
2022/02/19 11:27:20;;;;;;;1.67;0.60;;;;;;;13.53;31.81;99333.53;5007518;28;20210;-77
2022/02/19 11:30:29;;;;;;;2.37;0.60;;;;;;;13.58;31.85;99339.00;5036356;23;20299;-76
2022/02/19 11:33:10;;;;;;;2.17;0.70;;;;;;;13.48;31.82;99346.94;4992817;28;20238;-78
2022/02/19 11:36:13;;;;;;;1.40;0.73;;;;;;;13.28;31.71;99324.25;5008064;28;20247;-77
2022/02/19 11:39:01;;;;;;;2.80;0.90;;;;;;;13.32;31.06;99334.28;5016327;28;20195;-77
2022/02/19 11:41:40;;;;;;;2.40;0.83;;;;;;;13.39;31.24;99348.38;5007909;28;20247;-77
2022/02/19 11:45:39;;;;;;;3.83;0.80;;;;;;;13.65;31.25;99347.72;5016446;28;20203;-77
2022/02/19 11:48:31;;;;;;;1.77;0.70;;;;;;;13.77;31.50;99354.88;5013208;28;20574;-77
2022/02/19 11:51:16;;;;;;;1.90;0.60;;;;;;;13.89;32.15;99336.75;5011918;28;20231;-76
2022/02/19 11:54:21;;;;;;;1.00;0.50;;;;;;;14.06;31.91;99365.28;4997460;28;20240;-76
2022/02/19 11:57:16;;;;;;;2.67;0.77;;;;;;;14.26;32.09;99353.97;5008041;28;20238;-76
2022/02/19 11:59:55;;;;;;;2.07;0.70;;;;;;;14.38;31.73;99349.28;5016139;28;20230;-77
2022/02/19 12:02:27;;;;;;;2.63;0.90;;;;;;;14.62;31.87;99339.06;5028642;28;20192;-77
2022/02/19 12:05:18;;;;;;;1.40;0.80;;;;;;;14.47;30.97;99353.19;4996793;28;20228;-77
2022/02/19 12:08:07;;;;;;;1.97;0.80;;;;;;;14.62;31.34;99349.84;5003151;28;20630;-77
2022/02/19 12:11:05;;;;;;;1.07;0.53;;;;;;;14.34;31.32;99342.75;5012663;28;20262;-77
2022/02/19 12:13:54;;;;;;;1.60;0.80;;;;;;;14.43;31.10;99341.28;5006416;28;20275;-77
2022/02/19 12:16:39;;;;;;;1.70;0.70;;;;;;;14.39;31.67;99353.63;4995667;28;20242;-77
2022/02/19 12:19:11;;;;;;;2.70;0.90;;;;;;;14.61;31.66;99342.81;5015442;23;20223;-77
2022/02/19 12:21:47;;;;;;;2.47;0.70;;;;;;;14.49;31.13;99351.06;5009523;28;20278;-77
2022/02/19 12:24:26;;;;;;;1.67;0.83;;;;;;;14.63;30.89;99338.00;5026722;23;20234;-77
2022/02/19 12:27:05;;;;;;;3.40;0.90;;;;;;;14.81;30.85;99339.53;5010836;28;20203;-77
2022/02/19 12:29:41;;;;;;;5.13;1.70;;;;;;;14.94;30.09;99341.81;5008880;28;20222;-77
2022/02/19 12:32:51;;;;;;;2.30;0.80;;;;;;;14.96;31.10;99339.69;5018490;23;20582;-77
2022/02/19 12:35:44;;;;;;;1.90;0.60;;;;;;;14.77;29.67;99346.50;5022546;28;20282;-77
2022/02/19 12:38:17;;;;;;;2.60;1.00;;;;;;;14.67;29.81;99347.22;5011391;28;20226;-77
2022/02/19 12:41:07;;;;;;;2.60;0.80;;;;;;;14.68;29.26;99350.72;5011715;28;20261;-77
2022/02/19 12:44:06;;;;;;;2.97;0.67;;;;;;;14.36;30.47;99346.06;5004350;28;20236;-77
2022/02/19 12:46:56;;;;;;;3.23;0.80;;;;;;;14.62;30.17;99343.63;5006326;28;20224;-77
2022/02/19 12:49:46;;;;;;;1.87;1.00;;;;;;;14.64;30.18;99363.91;5014431;28;20291;-77
2022/02/19 12:52:21;;;;;;;1.50;0.70;;;;;;;14.75;28.95;99354.84;4990885;28;20271;-76
2022/02/19 12:55:17;;;;;;;2.03;0.60;;;;;;;14.72;29.02;99343.75;5102408;23;20251;-78
2022/02/19 12:58:05;;;;;;;1.37;0.77;;;;;;;14.41;29.14;99364.16;5026988;28;20199;-78
2022/02/19 13:00:34;;;;;;;3.53;0.60;;;;;;;14.42;28.77;99361.19;5014588;28;20235;-78
2022/02/19 13:03:21;;;;;;;2.60;0.70;;;;;;;14.36;27.71;99348.75;4997478;28;20638;-77
2022/02/19 13:05:58;;;;;;;1.43;0.70;;;;;;;14.63;28.16;99358.75;5105505;23;20226;-77
2022/02/19 13:08:50;;;;;;;2.30;0.70;;;;;;;14.65;27.39;99373.59;4976291;28;20243;-77
2022/02/19 13:12:09;;;;;;;2.37;0.60;;;;;;;14.63;26.58;99361.44;5014336;28;20220;-77
2022/02/19 13:15:04;;;;;;;1.77;0.70;;;;;;;14.87;27.19;99358.22;5024294;23;20242;-77
2022/02/19 13:17:54;;;;;;;1.73;0.87;;;;;;;14.78;27.67;99364.34;5099153;23;20653;-77
2022/02/19 13:20:24;;;;;;;0.83;0.50;;;;;;;14.35;27.20;99363.25;5021261;23;20215;-77
2022/02/19 13:22:56;;;;;;;2.47;0.83;;;;;;;14.57;27.40;99365.97;5024614;23;20218;-77
2022/02/19 13:25:54;;;;;;;2.87;0.70;;;;;;;14.39;27.75;99356.31;5012719;23;20224;-77